createdAt,value
2023-04-19T00:01:16.304Z,14.63
2023-04-19T00:03:44.859Z,14.56
2023-04-19T00:06:15.168Z,14.61
2023-04-19T00:08:43.933Z,14.50
2023-04-19T00:11:12.181Z,14.45
2023-04-19T00:13:40.595Z,14.52
2023-04-19T00:16:09.151Z,14.43
2023-04-19T00:18:38.660Z,14.49
2023-04-19T00:21:07.148Z,14.46
2023-04-19T00:23:35.537Z,14.43
2023-04-19T00:26:04.621Z,14.37
2023-04-19T00:28:33.985Z,14.39
2023-04-19T00:31:02.246Z,14.34
2023-04-19T00:33:30.760Z,14.32
2023-04-19T00:35:58.973Z,14.28
2023-04-19T00:38:27.205Z,14.27
2023-04-19T00:40:55.594Z,14.25
2023-04-19T00:43:23.857Z,14.21
2023-04-19T00:45:52.134Z,14.22
2023-04-19T00:48:20.408Z,14.25
2023-04-19T00:50:48.787Z,14.22
2023-04-19T00:53:17.039Z,14.25
2023-04-19T00:55:46.919Z,14.19
2023-04-19T00:58:15.244Z,14.11
2023-04-19T01:00:44.088Z,14.10
2023-04-19T01:03:14.479Z,14.03
2023-04-19T01:05:44.568Z,13.98
2023-04-19T01:08:14.805Z,13.91
2023-04-19T01:10:43.437Z,13.87
2023-04-19T01:13:11.840Z,13.74
2023-04-19T01:15:40.160Z,13.57
2023-04-19T01:18:08.804Z,13.62
2023-04-19T01:20:37.088Z,13.57
2023-04-19T01:23:06.123Z,13.54
2023-04-19T01:25:34.504Z,13.52
2023-04-19T01:28:02.708Z,13.45
2023-04-19T01:30:31.133Z,13.36
2023-04-19T01:32:59.487Z,13.32
2023-04-19T01:35:27.814Z,13.26
2023-04-19T01:37:56.383Z,13.22
2023-04-19T01:40:26.000Z,13.20
2023-04-19T01:42:54.525Z,13.15
2023-04-19T01:45:22.764Z,13.12
2023-04-19T01:47:52.886Z,13.07
2023-04-19T01:50:21.317Z,13.02
2023-04-19T01:52:49.808Z,12.93
2023-04-19T01:55:18.183Z,12.89
2023-04-19T01:57:46.441Z,12.85
2023-04-19T02:00:15.289Z,12.83
2023-04-19T02:02:43.923Z,12.77
2023-04-19T02:05:12.260Z,12.78
2023-04-19T02:07:40.632Z,12.68
2023-04-19T02:10:14.391Z,12.61
2023-04-19T02:12:43.010Z,12.55
2023-04-19T02:15:11.551Z,12.54
2023-04-19T02:17:40.536Z,12.47
2023-04-19T02:20:09.488Z,12.50
2023-04-19T02:22:37.851Z,12.41
2023-04-19T02:25:07.021Z,12.41
2023-04-19T02:27:35.216Z,12.29
2023-04-19T02:30:03.708Z,12.22
2023-04-19T02:32:35.415Z,12.16
2023-04-19T02:35:03.816Z,12.06
2023-04-19T02:37:32.142Z,12.03
2023-04-19T02:40:00.459Z,11.97
2023-04-19T02:42:30.677Z,11.87
2023-04-19T02:44:59.206Z,11.75
2023-04-19T02:47:27.430Z,11.71
2023-04-19T02:49:55.650Z,11.63
2023-04-19T02:52:24.258Z,11.59
2023-04-19T02:54:52.462Z,11.56
2023-04-19T02:57:20.950Z,11.54
2023-04-19T02:59:50.312Z,11.45
2023-04-19T03:02:18.761Z,11.46
2023-04-19T03:04:47.966Z,11.33
2023-04-19T03:07:17.237Z,11.36
2023-04-19T03:09:45.495Z,11.34
2023-04-19T03:12:13.819Z,11.34
2023-04-19T03:14:43.647Z,11.29
2023-04-19T03:17:12.194Z,11.27
2023-04-19T03:19:41.096Z,11.18
2023-04-19T03:22:09.618Z,11.14
2023-04-19T03:24:38.309Z,11.17
2023-04-19T03:27:24.660Z,11.11
2023-04-19T03:29:58.664Z,11.03
2023-04-19T03:32:27.814Z,10.97
2023-04-19T03:34:56.133Z,10.99
2023-04-19T03:37:24.361Z,10.98
2023-04-19T03:39:53.471Z,10.97
2023-04-19T03:42:29.182Z,10.89
2023-04-19T03:45:19.414Z,10.91
2023-04-19T03:47:49.299Z,10.82
2023-04-19T03:50:17.845Z,10.78
2023-04-19T03:52:49.916Z,10.72
2023-04-19T03:55:18.749Z,10.68
2023-04-19T03:57:48.632Z,10.59
2023-04-19T04:00:32.731Z,10.56
2023-04-19T04:03:02.793Z,10.50
2023-04-19T04:05:31.481Z,10.43
2023-04-19T04:08:01.644Z,10.43
2023-04-19T04:10:29.999Z,10.38
2023-04-19T04:12:58.248Z,10.31
2023-04-19T04:15:35.465Z,10.24
2023-04-19T04:18:05.720Z,10.15
2023-04-19T04:20:35.625Z,10.15
2023-04-19T04:23:09.053Z,10.10
2023-04-19T04:25:39.169Z,10.00
2023-04-19T04:28:11.374Z,9.96
2023-04-19T04:30:41.820Z,9.89
2023-04-19T04:33:12.172Z,9.87
2023-04-19T04:35:43.384Z,9.79
2023-04-19T04:38:24.046Z,9.75
2023-04-19T04:40:54.703Z,9.71
2023-04-19T04:43:26.361Z,9.66
2023-04-19T04:45:57.075Z,9.56
2023-04-19T04:48:27.501Z,9.61
2023-04-19T04:50:56.312Z,9.59
2023-04-19T04:53:27.775Z,9.58
2023-04-19T04:55:56.785Z,9.58
2023-04-19T04:58:25.185Z,9.55
2023-04-19T05:01:01.392Z,9.44
2023-04-19T05:03:30.883Z,9.52
2023-04-19T05:06:01.928Z,9.52
2023-04-19T05:08:31.785Z,9.47
2023-04-19T05:11:12.494Z,9.45
2023-04-19T05:13:40.997Z,9.35
2023-04-19T05:16:09.493Z,9.42
2023-04-19T05:18:37.789Z,9.49
2023-04-19T05:21:10.360Z,9.47
2023-04-19T05:23:40.776Z,9.56
2023-04-19T05:26:12.618Z,9.55
2023-04-19T05:28:44.608Z,9.55
2023-04-19T05:31:21.287Z,9.56
2023-04-19T05:34:07.997Z,9.59
2023-04-19T05:36:36.549Z,9.66
2023-04-19T05:39:04.981Z,9.64
2023-04-19T05:41:33.307Z,9.66
2023-04-19T05:44:01.590Z,9.69
2023-04-19T05:46:30.521Z,9.74
2023-04-19T05:48:59.607Z,9.85
2023-04-19T05:52:01.536Z,9.84
2023-04-19T05:54:37.949Z,9.91
2023-04-19T05:57:07.195Z,9.99
2023-04-19T05:59:35.585Z,9.98
2023-04-19T06:02:04.968Z,10.02
2023-04-19T06:04:33.441Z,10.07
2023-04-19T06:07:03.027Z,10.13
2023-04-19T06:09:31.808Z,10.23
2023-04-19T06:12:00.287Z,10.32
2023-04-19T06:14:31.451Z,10.44
2023-04-19T06:16:59.646Z,10.56
2023-04-19T06:19:28.021Z,10.62
2023-04-19T06:21:56.340Z,10.65
2023-04-19T06:24:24.650Z,10.69
2023-04-19T06:26:53.138Z,10.70
2023-04-19T06:29:23.755Z,10.78
2023-04-19T06:31:52.340Z,10.81
2023-04-19T06:34:20.673Z,10.87
2023-04-19T06:36:49.238Z,10.89
2023-04-19T06:39:17.829Z,10.93
2023-04-19T06:41:47.403Z,10.95
2023-04-19T06:44:18.483Z,11.07
2023-04-19T06:46:46.853Z,11.03
2023-04-19T06:49:15.529Z,11.16
2023-04-19T06:51:43.767Z,11.10
2023-04-19T06:54:12.007Z,11.19
2023-04-19T06:56:50.353Z,11.26
2023-04-19T06:59:21.192Z,11.30
2023-04-19T07:01:49.701Z,11.26
2023-04-19T07:04:19.249Z,11.23
2023-04-19T07:06:50.145Z,11.32
2023-04-19T07:09:18.432Z,11.32
2023-04-19T07:11:47.970Z,11.40
2023-04-19T07:14:16.699Z,11.46
2023-04-19T07:16:46.027Z,11.52
2023-04-19T07:19:15.266Z,11.53
2023-04-19T07:21:43.625Z,11.41
2023-04-19T07:24:11.887Z,11.54
2023-04-19T07:26:40.138Z,11.58
2023-04-19T07:29:08.601Z,11.76
2023-04-19T07:31:37.062Z,11.79
2023-04-19T07:34:05.307Z,11.88
2023-04-19T07:36:35.525Z,12.08
2023-04-19T07:39:04.792Z,11.97
2023-04-19T07:41:33.706Z,11.97
2023-04-19T07:44:02.708Z,12.09
2023-04-19T07:46:31.152Z,12.28
2023-04-19T07:48:59.469Z,12.42
2023-04-19T07:51:27.813Z,12.39
2023-04-19T07:53:56.152Z,12.58
2023-04-19T07:56:26.418Z,12.58
2023-04-19T07:59:06.672Z,12.76
2023-04-19T08:01:35.701Z,12.72
2023-04-19T08:04:04.875Z,12.84
2023-04-19T08:06:33.620Z,12.93
2023-04-19T08:09:02.080Z,13.04
2023-04-19T08:11:30.564Z,13.15
2023-04-19T08:14:09.250Z,13.24
2023-04-19T08:17:19.051Z,13.11
2023-04-19T08:19:31.668Z,13.34
2023-04-19T08:21:59.898Z,13.41
2023-04-19T08:24:28.364Z,13.37
2023-04-19T08:26:58.807Z,13.57
2023-04-19T08:29:28.203Z,13.46
2023-04-19T08:31:56.589Z,13.56
2023-04-19T08:34:25.194Z,13.54
2023-04-19T08:37:03.223Z,13.72
2023-04-19T08:39:35.508Z,14.02
2023-04-19T08:42:24.121Z,14.26
2023-04-19T08:47:37.220Z,14.54
2023-04-19T08:50:28.385Z,14.75
2023-04-19T08:55:35.350Z,14.75
2023-04-19T08:58:07.628Z,14.78
2023-04-19T09:00:41.333Z,14.81
2023-04-19T09:03:09.995Z,14.84
2023-04-19T09:05:38.720Z,14.96
2023-04-19T09:08:30.086Z,15.37
2023-04-19T09:11:02.316Z,15.58
2023-04-19T09:13:31.904Z,15.58
2023-04-19T09:16:04.750Z,15.95
2023-04-19T09:18:37.839Z,15.88
2023-04-19T09:21:08.522Z,16.04
2023-04-19T09:23:48.320Z,16.29
2023-04-19T09:26:23.250Z,16.65
2023-04-19T09:29:06.493Z,16.74
2023-04-19T09:31:50.470Z,16.68
2023-04-19T09:34:20.913Z,16.64
2023-04-19T09:36:54.564Z,16.53
2023-04-19T09:39:33.546Z,16.49
2023-04-19T09:42:02.148Z,16.47
2023-04-19T09:47:33.689Z,16.60
2023-04-19T09:50:22.006Z,17.01
2023-04-19T09:52:53.142Z,17.21
2023-04-19T09:55:27.362Z,17.60
2023-04-19T09:57:56.559Z,18.68
2023-04-19T10:00:25.148Z,19.57
2023-04-19T10:02:58.259Z,20.21
2023-04-19T10:05:27.579Z,-149.27
2023-04-19T10:07:59.595Z,-149.27
2023-04-19T10:13:19.278Z,20.21
2023-04-19T10:16:01.570Z,22.46
2023-04-19T10:18:37.037Z,23.08
2023-04-19T10:21:08.633Z,23.29
2023-04-19T10:23:37.929Z,23.38
2023-04-19T10:26:07.248Z,23.80
2023-04-19T10:28:37.854Z,24.16
2023-04-19T10:31:06.496Z,24.33
2023-04-19T10:33:38.152Z,24.58
2023-04-19T10:36:11.968Z,24.68
2023-04-19T10:38:49.304Z,24.79
2023-04-19T10:41:21.856Z,24.79
2023-04-19T10:43:55.990Z,25.23
2023-04-19T10:46:29.016Z,25.59
2023-04-19T10:49:05.404Z,25.45
2023-04-19T10:51:44.216Z,25.54
2023-04-19T10:54:37.687Z,26.44
2023-04-19T10:57:11.088Z,26.68
2023-04-19T10:59:44.294Z,26.46
2023-04-19T11:02:28.219Z,26.09
2023-04-19T11:04:56.634Z,26.68
2023-04-19T11:07:25.072Z,26.66
2023-04-19T11:09:53.157Z,27.47
2023-04-19T11:12:21.960Z,27.01
2023-04-19T11:14:59.868Z,27.48
2023-04-19T11:17:32.507Z,27.99
2023-04-19T11:20:07.342Z,28.24
2023-04-19T11:22:45.714Z,28.91
2023-04-19T11:25:19.183Z,29.12
2023-04-19T11:27:57.327Z,29.19
2023-04-19T11:30:31.890Z,29.63
2023-04-19T11:33:00.256Z,29.95
2023-04-19T11:35:32.689Z,29.19
2023-04-19T11:38:01.808Z,29.80
2023-04-19T11:40:32.065Z,30.20
2023-04-19T11:43:03.489Z,29.70
2023-04-19T11:45:39.507Z,29.72
2023-04-19T11:48:17.423Z,30.51
2023-04-19T11:50:49.137Z,30.68
2023-04-19T11:53:25.058Z,30.51
2023-04-19T11:56:15.260Z,30.23
2023-04-19T11:58:48.637Z,30.08
2023-04-19T12:01:21.644Z,29.81
2023-04-19T12:03:56.461Z,29.99
2023-04-19T12:06:28.706Z,30.20
2023-04-19T12:08:57.630Z,29.95
2023-04-19T12:11:45.362Z,30.24
2023-04-19T12:14:16.503Z,31.09
2023-04-19T12:16:45.501Z,31.20
2023-04-19T12:19:20.310Z,31.82
2023-04-19T12:21:48.914Z,31.51
2023-04-19T12:24:17.572Z,32.22
2023-04-19T12:26:57.176Z,32.40
2023-04-19T12:29:26.851Z,32.81
2023-04-19T12:31:54.723Z,32.89
2023-04-19T12:34:23.070Z,33.11
2023-04-19T12:36:51.491Z,33.36
2023-04-19T12:39:19.851Z,33.22
2023-04-19T12:41:50.740Z,31.97
2023-04-19T12:44:19.106Z,29.65
2023-04-19T12:46:47.447Z,29.59
2023-04-19T12:49:18.773Z,30.14
2023-04-19T12:51:47.597Z,31.24
2023-04-19T12:54:16.362Z,31.98
2023-04-19T12:56:44.605Z,32.63
2023-04-19T12:59:12.976Z,32.63
2023-04-19T13:01:41.196Z,32.97
2023-04-19T13:04:12.085Z,32.91
2023-04-19T13:06:40.889Z,33.49
2023-04-19T13:11:40.541Z,-149.27
2023-04-19T13:14:08.990Z,-149.27
2023-04-19T13:16:37.241Z,-149.27
2023-04-19T13:19:05.993Z,-149.27
2023-04-19T13:21:34.366Z,-149.27
2023-04-19T13:24:02.707Z,-149.27
2023-04-19T13:26:31.136Z,-149.27
2023-04-19T13:28:59.593Z,-149.27
2023-04-19T13:31:28.169Z,-149.27
2023-04-19T13:33:56.893Z,-149.27
2023-04-19T13:36:25.276Z,-149.27
2023-04-19T13:38:54.061Z,-149.27
2023-04-19T13:41:22.632Z,-149.27
2023-04-19T13:43:51.191Z,34.01
2023-04-19T13:46:19.429Z,34.17
2023-04-19T13:48:47.762Z,34.44
2023-04-19T13:51:15.711Z,34.62
2023-04-19T13:53:44.059Z,33.88
2023-04-19T13:56:12.484Z,33.90
2023-04-19T13:58:40.805Z,34.07
2023-04-19T14:01:09.116Z,34.34
2023-04-19T14:03:37.638Z,34.33
2023-04-19T14:06:06.167Z,33.88
2023-04-19T14:08:34.164Z,34.07
2023-04-19T14:11:02.877Z,34.36
2023-04-19T14:13:32.809Z,34.40
2023-04-19T14:16:00.802Z,34.43
2023-04-19T14:18:29.142Z,33.93
2023-04-19T14:21:00.332Z,33.52
2023-04-19T14:23:28.595Z,33.77
2023-04-19T14:25:59.856Z,33.56
2023-04-19T14:28:28.068Z,33.66
2023-04-19T14:30:56.285Z,33.93
2023-04-19T14:33:41.724Z,34.03
2023-04-19T14:36:09.615Z,34.27
2023-04-19T14:38:38.019Z,32.58
2023-04-19T14:41:06.609Z,31.49
2023-04-19T14:43:34.587Z,29.90
2023-04-19T14:46:03.056Z,29.96
2023-04-19T14:48:31.453Z,30.54
2023-04-19T14:50:59.761Z,30.71
2023-04-19T14:53:28.214Z,28.65
2023-04-19T14:55:56.517Z,27.68
2023-04-19T14:58:24.781Z,-149.27
2023-04-19T15:00:54.157Z,-149.27
2023-04-19T15:03:23.862Z,28.38
2023-04-19T15:05:52.541Z,29.71
2023-04-19T15:08:30.460Z,30.40
2023-04-19T15:10:59.149Z,30.76
2023-04-19T15:13:29.559Z,31.26
2023-04-19T15:15:57.507Z,31.09
2023-04-19T15:18:26.010Z,31.40
2023-04-19T15:20:54.410Z,29.70
2023-04-19T15:23:25.228Z,30.19
2023-04-19T15:25:53.547Z,30.87
2023-04-19T15:28:23.967Z,29.65
2023-04-19T15:31:02.481Z,28.88
2023-04-19T15:33:31.024Z,28.08
2023-04-19T15:36:00.756Z,27.89
2023-04-19T15:38:31.500Z,28.41
2023-04-19T15:41:01.306Z,29.02
2023-04-19T15:43:29.995Z,29.56
2023-04-19T15:45:58.423Z,30.17
2023-04-19T15:48:26.790Z,30.34
2023-04-19T15:50:55.213Z,30.31
2023-04-19T15:53:23.475Z,30.33
2023-04-19T15:55:51.699Z,30.41
2023-04-19T15:58:19.977Z,30.23
2023-04-19T16:00:48.235Z,30.36
2023-04-19T16:03:16.587Z,30.38
2023-04-19T16:05:45.003Z,30.48
2023-04-19T16:08:17.312Z,30.04
2023-04-19T16:10:46.676Z,29.96
2023-04-19T16:13:15.577Z,29.99
2023-04-19T16:15:44.871Z,29.95
2023-04-19T16:18:13.969Z,29.79
2023-04-19T16:20:42.600Z,29.19
2023-04-19T16:23:10.884Z,29.05
2023-04-19T16:25:41.205Z,29.22
2023-04-19T16:28:09.198Z,28.96
2023-04-19T16:30:37.677Z,29.23
2023-04-19T16:33:06.159Z,28.91
2023-04-19T16:35:34.733Z,28.65
2023-04-19T16:38:04.407Z,28.85
2023-04-19T16:40:32.769Z,28.59
2023-04-19T16:43:01.437Z,28.32
2023-04-19T16:45:29.711Z,28.29
2023-04-19T16:47:58.192Z,28.32
2023-04-19T16:50:26.144Z,28.38
2023-04-19T16:52:54.471Z,28.38
2023-04-19T16:55:22.832Z,27.91
2023-04-19T16:57:51.278Z,27.62
2023-04-19T17:00:19.890Z,27.67
2023-04-19T17:02:48.721Z,27.71
2023-04-19T17:05:17.056Z,27.19
2023-04-19T17:07:45.383Z,26.11
2023-04-19T17:10:13.709Z,25.39
2023-04-19T17:12:42.138Z,24.62
2023-04-19T17:15:10.837Z,-149.27
2023-04-19T17:17:39.096Z,-149.27
2023-04-19T17:20:08.556Z,-149.27
2023-04-19T17:22:36.806Z,24.62
2023-04-19T17:25:05.886Z,24.31
2023-04-19T17:27:34.177Z,24.05
2023-04-19T17:30:03.398Z,23.90
2023-04-19T17:32:31.620Z,23.79
2023-04-19T17:34:59.936Z,23.62
2023-04-19T17:37:28.505Z,23.40
2023-04-19T17:39:56.434Z,22.92
2023-04-19T17:42:24.861Z,22.60
2023-04-19T17:44:53.276Z,22.34
2023-04-19T17:47:21.673Z,22.08
2023-04-19T17:49:50.129Z,21.74
2023-04-19T17:52:18.635Z,21.40
2023-04-19T17:54:47.996Z,21.18
2023-04-19T17:57:16.216Z,20.93
2023-04-19T17:59:46.003Z,20.44
2023-04-19T18:02:14.376Z,19.76
2023-04-19T18:04:45.562Z,19.54
2023-04-19T18:07:13.942Z,19.04
2023-04-19T18:09:42.409Z,18.74
2023-04-19T18:12:10.776Z,18.37
2023-04-19T18:14:39.058Z,18.09
2023-04-19T18:17:08.017Z,17.85
2023-04-19T18:19:37.297Z,17.54
2023-04-19T18:22:05.507Z,17.24
2023-04-19T18:24:33.910Z,17.12
2023-04-19T18:27:03.418Z,16.86
2023-04-19T18:29:31.854Z,16.70
2023-04-19T18:32:00.148Z,16.52
2023-04-19T18:34:28.711Z,16.38
2023-04-19T18:37:03.002Z,16.23
2023-04-19T18:39:31.710Z,15.94
2023-04-19T18:42:00.217Z,15.58
2023-04-19T18:44:44.286Z,15.55
2023-04-19T18:47:17.856Z,15.48
2023-04-19T18:49:58.014Z,15.18
2023-04-19T18:52:31.586Z,15.11
2023-04-19T18:55:00.852Z,14.95
2023-04-19T18:57:30.625Z,14.95
2023-04-19T19:00:05.220Z,14.68
2023-04-19T19:02:34.448Z,14.74
2023-04-19T19:05:03.652Z,14.70
2023-04-19T19:07:37.139Z,14.59
2023-04-19T19:10:17.149Z,14.46
2023-04-19T19:12:49.601Z,14.44
2023-04-19T19:15:18.345Z,14.27
2023-04-19T19:17:49.859Z,14.22
2023-04-19T19:20:19.710Z,14.06
2023-04-19T19:22:48.409Z,14.05
2023-04-19T19:25:16.974Z,14.01
2023-04-19T19:28:05.777Z,13.96
2023-04-19T19:30:39.726Z,13.91
2023-04-19T19:33:08.563Z,13.87
2023-04-19T19:35:37.013Z,13.93
2023-04-19T19:38:05.334Z,13.83
2023-04-19T19:40:33.921Z,13.76
2023-04-19T19:43:02.650Z,13.57
2023-04-19T19:45:31.765Z,13.68
2023-04-19T19:48:00.924Z,13.79
2023-04-19T19:53:01.772Z,13.78
2023-04-19T19:55:30.484Z,13.66
2023-04-19T20:03:02.236Z,13.65
2023-04-19T20:05:31.071Z,13.70
2023-04-19T20:08:27.466Z,13.56
2023-04-19T20:10:55.828Z,13.61
2023-04-19T20:13:24.065Z,13.71
2023-04-19T20:15:53.369Z,13.53
2023-04-19T20:18:21.824Z,13.49
2023-04-19T20:20:51.679Z,13.44
2023-04-19T20:23:21.734Z,13.33
2023-04-19T20:25:51.877Z,13.34
2023-04-19T20:28:20.312Z,13.22
2023-04-19T20:30:48.573Z,13.19
2023-04-19T20:33:17.013Z,13.29
2023-04-19T20:35:45.504Z,13.16
2023-04-19T20:38:13.847Z,13.12
2023-04-19T20:40:43.994Z,13.10
2023-04-19T20:43:12.784Z,13.04
2023-04-19T20:45:42.357Z,12.98
2023-04-19T20:48:10.850Z,12.89
2023-04-19T20:50:39.434Z,12.82
2023-04-19T20:53:07.828Z,12.83
2023-04-19T20:55:38.148Z,12.79
2023-04-19T20:58:06.486Z,12.72
2023-04-19T21:00:35.137Z,12.55
2023-04-19T21:03:05.056Z,12.59
2023-04-19T21:05:35.056Z,12.51
2023-04-19T21:08:04.661Z,12.52
2023-04-19T21:10:32.654Z,12.49
2023-04-19T21:13:01.403Z,12.55
2023-04-19T21:15:29.805Z,12.48
2023-04-19T21:17:58.177Z,12.58
2023-04-19T21:20:26.562Z,12.64
2023-04-19T21:22:54.922Z,12.52
2023-04-19T21:25:23.378Z,12.61
2023-04-19T21:27:51.681Z,12.53
2023-04-19T21:30:22.577Z,12.59
2023-04-19T21:32:52.006Z,12.55
2023-04-19T21:35:20.383Z,12.60
2023-04-19T21:37:48.699Z,12.58
2023-04-19T21:40:16.972Z,12.49
2023-04-19T21:42:45.394Z,12.43
2023-04-19T21:45:13.619Z,12.51
2023-04-19T21:47:42.039Z,12.29
2023-04-19T21:50:10.834Z,12.49
2023-04-19T21:52:40.167Z,12.32
2023-04-19T21:55:09.017Z,12.58
2023-04-19T21:57:38.332Z,12.63
2023-04-19T22:00:11.446Z,12.53
2023-04-19T22:02:41.689Z,12.43
2023-04-19T22:05:10.200Z,12.34
2023-04-19T22:07:40.144Z,12.21
2023-04-19T22:10:09.364Z,12.24
2023-04-19T22:12:45.298Z,12.38
2023-04-19T22:15:25.928Z,12.47
2023-04-19T22:17:54.359Z,12.35
2023-04-19T22:20:23.933Z,12.36
2023-04-19T22:22:52.560Z,12.38
2023-04-19T22:25:21.211Z,12.21
2023-04-19T22:27:50.360Z,12.42
2023-04-19T22:30:18.725Z,12.35
2023-04-19T22:32:47.005Z,12.36
2023-04-19T22:35:15.449Z,12.37
2023-04-19T22:37:43.760Z,12.36
2023-04-19T22:40:12.531Z,12.64
2023-04-19T22:42:40.798Z,12.55
2023-04-19T22:45:10.181Z,12.65
2023-04-19T22:47:38.757Z,12.53
2023-04-19T22:50:08.821Z,12.54
2023-04-19T22:52:37.362Z,12.47
2023-04-19T22:55:06.913Z,12.53
2023-04-19T22:57:35.156Z,12.53
2023-04-19T23:00:05.615Z,12.72
2023-04-19T23:02:34.233Z,12.76
2023-04-19T23:05:02.565Z,12.66
2023-04-19T23:07:30.944Z,12.56
2023-04-19T23:09:59.150Z,12.63
2023-04-19T23:12:27.399Z,12.73
2023-04-19T23:14:55.982Z,12.76
2023-04-19T23:17:25.062Z,12.46
2023-04-19T23:19:53.304Z,12.59
2023-04-19T23:22:21.638Z,12.54
2023-04-19T23:24:49.923Z,12.62
2023-04-19T23:27:18.161Z,12.73
2023-04-19T23:29:46.382Z,12.61
2023-04-19T23:32:14.727Z,12.56
2023-04-19T23:34:42.928Z,12.62
2023-04-19T23:37:12.307Z,12.51
2023-04-19T23:39:40.708Z,12.35
2023-04-19T23:42:08.954Z,12.55
2023-04-19T23:44:38.873Z,12.32
2023-04-19T23:47:07.914Z,12.63
2023-04-19T23:49:36.230Z,12.33
2023-04-19T23:52:04.736Z,12.34
2023-04-19T23:54:33.010Z,12.54
2023-04-19T23:57:01.770Z,12.56
2023-04-19T23:59:30.597Z,12.60
